Time;durP1;ratioP1;P1;durP2;ratioP2;P2;SDS_P1;SDS_P2;PMS_P1;PMS_P2;Temp;Humidity;BMP_temperature;BMP_pressure;BME280_temperature;BME280_humidity;BME280_pressure;Samples;Min_cycle;Max_cycle;Signal;HPM_P1;HPM_P2
2022/05/25 00:01:46;;;;;;;9.02;6.28;;;;;;;16.23;78.58;94476.03;5032711;28;20197;-84
2022/05/25 00:04:13;;;;;;;10.45;5.85;;;;;;;16.26;78.17;94481.53;5029402;28;20599;-84
2022/05/25 00:06:40;;;;;;;8.93;5.90;;;;;;;16.23;78.46;94476.81;5023189;28;20207;-84
2022/05/25 00:09:07;;;;;;;9.85;6.40;;;;;;;16.11;78.68;94474.28;5028459;28;20703;-84
2022/05/25 00:11:35;;;;;;;13.23;6.65;;;;;;;16.16;79.04;94476.69;5023008;28;20203;-84
2022/05/25 00:14:03;;;;;;;8.25;6.28;;;;;;;16.16;79.18;94465.75;5028488;28;20225;-84
2022/05/25 00:16:30;;;;;;;11.43;7.07;;;;;;;16.19;78.94;94470.50;5023261;28;20200;-84
2022/05/25 00:21:41;;;;;;;12.40;7.00;;;;;;;16.16;79.08;94468.47;5025622;28;20591;-84
2022/05/25 00:24:08;;;;;;;8.10;5.95;;;;;;;15.95;79.93;94477.13;5032367;28;20201;-84
2022/05/25 00:26:36;;;;;;;7.43;5.72;;;;;;;16.00;79.44;94473.28;5031907;28;20232;-84
2022/05/25 00:29:04;;;;;;;9.25;6.60;;;;;;;15.85;80.22;94482.44;5020119;28;20200;-84
2022/05/25 00:31:32;;;;;;;10.25;6.03;;;;;;;15.98;79.14;94473.69;5024182;28;20563;-84
2022/05/25 00:33:59;;;;;;;13.57;7.25;;;;;;;16.07;79.14;94476.16;5032307;28;20205;-84
2022/05/25 00:36:26;;;;;;;13.43;7.10;;;;;;;16.12;78.62;94475.84;5031848;28;20225;-84
2022/05/25 00:38:53;;;;;;;12.60;6.82;;;;;;;16.10;78.49;94469.97;5032287;28;20231;-84
2022/05/25 00:41:24;;;;;;;9.35;6.10;;;;;;;16.04;78.53;94470.63;5031501;28;20201;-84
2022/05/25 00:43:52;;;;;;;8.80;6.20;;;;;;;15.94;79.04;94474.78;5039719;28;20615;-84
2022/05/25 00:46:21;;;;;;;10.10;6.15;;;;;;;15.91;78.88;94470.03;5034854;28;20251;-84
2022/05/25 00:48:51;;;;;;;13.93;6.57;;;;;;;15.94;79.44;94472.81;5032260;28;20620;-83
2022/05/25 00:51:24;;;;;;;10.10;6.65;;;;;;;15.92;79.68;94471.59;5032029;28;20232;-84
2022/05/25 00:53:57;;;;;;;12.93;8.68;;;;;;;16.02;79.67;94475.66;5032053;28;20235;-84
2022/05/25 00:56:26;;;;;;;10.35;6.95;;;;;;;16.00;79.81;94473.28;5030871;28;20651;-84
2022/05/25 00:59:00;;;;;;;10.75;6.90;;;;;;;16.08;79.04;94480.47;5019107;28;20228;-84
2022/05/25 01:01:28;;;;;;;9.48;6.43;;;;;;;15.96;79.13;94475.19;5018566;28;20192;-84
2022/05/25 01:03:55;;;;;;;11.60;6.70;;;;;;;15.89;79.52;94477.78;5031740;28;20223;-84
2022/05/25 01:06:42;;;;;;;8.55;6.57;;;;;;;15.78;79.91;94476.81;5031038;28;20204;-84
2022/05/25 01:09:16;;;;;;;8.63;6.55;;;;;;;15.71;80.46;94479.44;5031510;28;20200;-84
2022/05/25 01:11:56;;;;;;;8.68;6.38;;;;;;;15.74;80.20;94475.97;5028891;28;20190;-84
2022/05/25 01:14:38;;;;;;;9.63;6.68;;;;;;;15.72;79.79;94483.72;5031650;28;20287;-84
2022/05/25 01:17:13;;;;;;;10.35;6.10;;;;;;;15.57;80.84;94488.97;5029184;28;20200;-84
2022/05/25 01:20:03;;;;;;;10.45;6.50;;;;;;;15.61;80.89;94495.25;5021956;28;20625;-84
2022/05/25 01:22:53;;;;;;;10.38;6.07;;;;;;;15.56;81.00;94492.84;5025492;28;20193;-84
2022/05/25 01:25:42;;;;;;;11.75;6.22;;;;;;;15.62;80.84;94496.84;5028253;28;20208;-84
2022/05/25 01:28:22;;;;;;;10.15;6.43;;;;;;;15.53;81.00;94496.25;5031016;28;20315;-83
2022/05/25 01:30:54;;;;;;;12.13;6.63;;;;;;;15.43;81.18;94496.84;5019914;28;20191;-83
2022/05/25 01:33:28;;;;;;;13.55;7.13;;;;;;;15.43;81.37;94498.81;5031010;28;20204;-83
2022/05/25 01:36:03;;;;;;;10.88;6.88;;;;;;;15.38;81.54;94497.16;5030646;28;20203;-82
2022/05/25 01:38:37;;;;;;;15.07;7.20;;;;;;;15.39;81.63;94504.19;5031317;28;20260;-83
2022/05/25 01:41:11;;;;;;;9.82;6.85;;;;;;;15.40;81.64;94508.50;5029010;28;20204;-83
2022/05/25 01:43:42;;;;;;;9.48;6.55;;;;;;;15.42;81.26;94498.00;5025137;28;20203;-83
2022/05/25 01:46:15;;;;;;;8.88;6.53;;;;;;;15.43;81.36;94494.13;5036082;28;20293;-84
2022/05/25 01:48:44;;;;;;;8.10;6.50;;;;;;;15.50;81.23;94504.38;5022568;28;20189;-84
2022/05/25 01:51:15;;;;;;;13.25;6.65;;;;;;;15.57;80.98;94505.34;5024648;28;20679;-83
2022/05/25 01:53:46;;;;;;;11.02;7.00;;;;;;;15.48;81.06;94504.75;5020647;28;20595;-83
2022/05/25 01:56:16;;;;;;;13.73;7.75;;;;;;;15.43;81.21;94510.50;5026916;28;20229;-84
2022/05/25 01:58:47;;;;;;;8.88;6.47;;;;;;;15.38;81.68;94502.59;5022432;28;20212;-84
2022/05/25 02:01:15;;;;;;;12.50;7.18;;;;;;;15.39;81.40;94509.63;5016410;28;20200;-84
2022/05/25 02:07:07;;;;;;;14.48;6.65;;;;;;;15.33;81.81;94519.25;5019147;28;20590;-84
2022/05/25 02:10:00;;;;;;;11.25;6.63;;;;;;;15.16;82.61;94517.00;5030765;28;20616;-84
2022/05/25 02:12:39;;;;;;;12.65;7.35;;;;;;;15.16;82.31;94517.00;5029465;28;20216;-84
2022/05/25 02:15:16;;;;;;;12.20;7.70;;;;;;;15.22;82.56;94521.78;5030975;28;20200;-84
2022/05/25 02:17:51;;;;;;;13.52;7.68;;;;;;;15.25;82.72;94531.19;5018778;28;20196;-84
2022/05/25 02:20:26;;;;;;;12.27;7.78;;;;;;;15.19;82.53;94524.44;5028796;28;20232;-83
2022/05/25 02:22:57;;;;;;;14.77;7.65;;;;;;;15.20;82.24;94528.75;5028590;28;20192;-84
2022/05/25 02:25:30;;;;;;;12.93;7.55;;;;;;;15.15;82.47;94538.03;5030676;28;20220;-84
2022/05/25 02:28:02;;;;;;;12.07;7.80;;;;;;;15.12;82.06;94529.75;5019571;28;20225;-84
2022/05/25 02:30:32;;;;;;;11.43;7.60;;;;;;;15.13;82.61;94539.53;5016063;28;20283;-84
2022/05/25 02:33:04;;;;;;;12.13;7.30;;;;;;;15.16;81.78;94539.59;5029995;28;20256;-84
2022/05/25 02:35:34;;;;;;;14.93;8.20;;;;;;;15.09;82.21;94549.56;5017795;28;20203;-84
2022/05/25 02:38:05;;;;;;;15.88;8.93;;;;;;;15.07;83.03;94546.41;5030474;28;20239;-83
2022/05/25 02:40:34;;;;;;;13.20;8.68;;;;;;;15.01;83.22;94548.63;5030704;28;20274;-84
2022/05/25 02:43:01;;;;;;;18.08;9.27;;;;;;;15.06;82.94;94550.28;5028759;28;20212;-84
2022/05/25 02:45:28;;;;;;;13.05;8.10;;;;;;;15.06;82.79;94553.78;5030496;28;20642;-84
2022/05/25 02:47:55;;;;;;;10.65;7.70;;;;;;;15.09;82.46;94561.28;5030617;28;20200;-83
2022/05/25 02:50:23;;;;;;;16.65;8.77;;;;;;;15.11;82.78;94563.66;5033832;28;20287;-84
2022/05/25 02:52:50;;;;;;;14.15;8.10;;;;;;;15.08;82.57;94558.91;5032936;28;20220;-84
2022/05/25 02:55:18;;;;;;;15.10;9.27;;;;;;;14.79;83.98;94558.28;5033813;28;20231;-84
2022/05/25 02:57:44;;;;;;;14.70;8.70;;;;;;;14.91;83.49;94565.53;5031066;28;20669;-84
2022/05/25 03:00:13;;;;;;;13.25;9.50;;;;;;;14.85;84.06;94556.88;5014312;28;20236;-84
2022/05/25 03:02:40;;;;;;;15.30;9.23;;;;;;;14.93;83.86;94558.59;5028409;28;20200;-84
2022/05/25 03:05:09;;;;;;;15.60;9.73;;;;;;;15.06;83.68;94559.25;5024118;28;20271;-84
2022/05/25 03:07:37;;;;;;;17.23;9.52;;;;;;;15.13;83.70;94572.28;5030929;28;20349;-84
2022/05/25 03:10:05;;;;;;;18.83;11.05;;;;;;;15.21;83.44;94568.53;5033756;28;20204;-84
2022/05/25 03:12:32;;;;;;;17.63;10.20;;;;;;;15.21;83.86;94569.31;5030721;28;20908;-84
2022/05/25 03:14:59;;;;;;;16.05;10.25;;;;;;;15.43;83.08;94569.78;5033467;28;20244;-84
2022/05/25 03:17:26;;;;;;;14.48;10.20;;;;;;;15.69;82.56;94577.34;5033663;28;20278;-84
2022/05/25 03:19:56;;;;;;;16.90;10.15;;;;;;;16.01;80.94;94584.16;5033808;28;20239;-84
2022/05/25 03:22:23;;;;;;;19.17;10.00;;;;;;;16.33;79.86;94585.53;5028621;28;20200;-84
2022/05/25 03:24:52;;;;;;;16.50;10.80;;;;;;;16.69;77.33;94572.44;5022149;28;20873;-84
2022/05/25 03:27:19;;;;;;;16.55;10.48;;;;;;;16.73;78.01;94591.66;5032170;28;20205;-83
2022/05/25 03:29:46;;;;;;;18.75;10.70;;;;;;;17.23;76.41;94576.75;5021709;28;20575;-83
2022/05/25 03:32:13;;;;;;;16.25;10.55;;;;;;;17.63;74.53;94578.84;5030633;28;20239;-83
2022/05/25 03:34:40;;;;;;;15.77;12.20;;;;;;;18.00;73.25;94578.88;5021612;28;20209;-83
2022/05/25 03:37:07;;;;;;;19.85;10.35;;;;;;;18.35;72.42;94584.72;5032406;28;20200;-83
2022/05/25 03:39:35;;;;;;;15.65;12.13;;;;;;;18.67;71.33;94587.75;5033535;28;20232;-84
2022/05/25 03:42:07;;;;;;;17.67;13.20;;;;;;;18.70;70.99;94591.72;5030550;28;20525;-83
2022/05/25 03:44:34;;;;;;;15.70;12.70;;;;;;;18.46;70.18;94607.53;5045352;28;20188;-83
2022/05/25 03:47:02;;;;;;;16.33;12.45;;;;;;;18.56;70.57;94608.81;5033002;28;20235;-83
2022/05/25 03:49:30;;;;;;;18.80;12.57;;;;;;;18.69;69.61;94601.91;5019879;28;20314;-83
2022/05/25 03:51:57;;;;;;;15.45;12.40;;;;;;;18.70;69.86;94608.19;5031241;28;20220;-83
2022/05/25 03:54:24;;;;;;;18.25;13.10;;;;;;;18.58;70.18;94611.19;5030313;28;20695;-83
2022/05/25 03:56:52;;;;;;;18.42;12.10;;;;;;;18.59;70.28;94612.75;5022178;28;20211;-83
2022/05/25 03:59:20;;;;;;;17.00;13.18;;;;;;;18.99;68.98;94615.47;5032226;28;20243;-83
2022/05/25 04:01:47;;;;;;;19.83;13.15;;;;;;;19.23;68.30;94610.53;5030788;28;20692;-83
2022/05/25 04:04:14;;;;;;;18.90;12.65;;;;;;;20.18;64.86;94610.19;5032884;28;20205;-83
2022/05/25 04:06:41;;;;;;;19.33;13.95;;;;;;;20.81;62.70;94609.50;5032845;28;20196;-83
2022/05/25 04:09:09;;;;;;;22.52;13.80;;;;;;;21.80;60.66;94600.31;5020057;28;20208;-83
2022/05/25 04:11:36;;;;;;;21.02;14.02;;;;;;;22.27;58.56;94612.75;5029136;28;20220;-83
2022/05/25 04:14:03;;;;;;;17.38;12.50;;;;;;;22.94;56.31;94606.00;5033357;28;20236;-84
2022/05/25 04:16:32;;;;;;;19.55;12.52;;;;;;;23.28;55.93;94610.84;5032461;28;20212;-84
2022/05/25 04:18:59;;;;;;;16.92;11.85;;;;;;;23.35;54.72;94611.56;5019021;28;20707;-84
2022/05/25 04:21:26;;;;;;;11.15;9.13;;;;;;;23.29;56.00;94610.44;5032472;28;20201;-86
2022/05/25 04:23:52;;;;;;;12.18;9.40;;;;;;;24.26;53.05;94588.03;5028045;28;20232;-86
2022/05/25 04:26:20;;;;;;;12.13;8.80;;;;;;;24.63;52.16;94585.13;5023713;28;20197;-86
2022/05/25 04:28:47;;;;;;;11.48;9.05;;;;;;;25.21;51.47;94585.81;5014858;28;20252;-85
2022/05/25 04:31:14;;;;;;;10.23;9.00;;;;;;;24.92;51.23;94593.00;5023789;28;20208;-86
2022/05/25 04:33:42;;;;;;;12.20;9.10;;;;;;;25.76;49.28;94593.53;5027151;28;20216;-85
2022/05/25 04:36:09;;;;;;;10.88;9.35;;;;;;;25.69;49.58;94592.91;5024610;28;20220;-85
2022/05/25 04:38:36;;;;;;;12.23;9.30;;;;;;;25.77;49.01;94584.00;5032038;28;20216;-86
2022/05/25 04:41:03;;;;;;;12.05;9.10;;;;;;;25.72;49.01;94603.13;5031638;28;20571;-85
2022/05/25 04:43:30;;;;;;;11.93;8.75;;;;;;;25.59;50.10;94600.19;5031730;28;20192;-84
2022/05/25 04:45:59;;;;;;;13.00;9.15;;;;;;;25.77;49.10;94605.44;5021871;28;20240;-90
2022/05/25 04:48:26;;;;;;;11.15;9.02;;;;;;;26.99;46.83;94598.88;5031516;28;20699;-85
2022/05/25 04:50:56;;;;;;;10.82;8.77;;;;;;;27.09;45.29;94600.63;5027145;28;20664;-84
2022/05/25 04:53:23;;;;;;;13.98;10.00;;;;;;;26.74;46.74;94603.00;5030298;28;20217;-85
2022/05/25 04:58:37;;;;;;;13.82;9.98;;;;;;;27.17;45.16;94594.47;5021365;28;20608;-85
2022/05/25 05:01:05;;;;;;;14.02;9.43;;;;;;;26.87;46.37;94590.00;5030575;28;20319;-83
2022/05/25 05:03:33;;;;;;;13.80;10.20;;;;;;;25.36;49.05;94603.78;5028696;28;20196;-82
2022/05/25 05:06:02;;;;;;;9.63;8.48;;;;;;;26.02;48.41;94594.63;5030187;28;20205;-86
2022/05/25 05:08:30;;;;;;;11.80;8.93;;;;;;;26.75;46.61;94603.78;5031423;28;20452;-80
2022/05/25 05:10:58;;;;;;;13.23;9.52;;;;;;;25.47;49.39;94615.44;5030047;28;20231;-84
2022/05/25 05:13:25;;;;;;;13.55;8.98;;;;;;;26.35;47.59;94605.88;5025376;28;20649;-84
2022/05/25 05:15:53;;;;;;;13.52;9.32;;;;;;;26.46;47.20;94598.09;5027330;28;20259;-78
2022/05/25 05:18:23;;;;;;;10.32;9.20;;;;;;;26.80;46.29;94606.81;5030422;28;20228;-79
2022/05/25 05:20:50;;;;;;;14.23;9.30;;;;;;;26.89;46.36;94612.59;5030235;28;20274;-84
2022/05/25 05:23:19;;;;;;;10.50;8.85;;;;;;;27.95;44.25;94608.34;5030257;28;20311;-87
2022/05/25 05:25:45;;;;;;;11.88;8.98;;;;;;;27.43;45.40;94617.66;5018747;28;20236;-83
2022/05/25 05:28:16;;;;;;;10.38;9.27;;;;;;;26.89;46.41;94618.16;5028103;28;20209;-84
2022/05/25 05:30:48;;;;;;;12.25;9.38;;;;;;;28.03;44.30;94614.47;5023657;28;20229;-86
2022/05/25 05:33:15;;;;;;;12.82;9.07;;;;;;;28.58;42.90;94611.31;5024419;28;20215;-88
2022/05/25 05:35:43;;;;;;;11.15;8.93;;;;;;;28.23;43.48;94624.28;5018965;28;20304;-82
2022/05/25 05:38:11;;;;;;;10.98;9.35;;;;;;;27.88;44.56;94625.25;5027036;28;20201;-88
2022/05/25 05:40:40;;;;;;;11.13;9.30;;;;;;;26.61;46.55;94629.91;5030130;28;20243;-88
2022/05/25 05:43:09;;;;;;;11.27;9.55;;;;;;;28.41;43.87;94620.22;5029182;28;20192;-87
2022/05/25 05:45:39;;;;;;;12.30;8.98;;;;;;;27.98;43.79;94635.31;5030865;28;20788;-89
2022/05/25 05:48:10;;;;;;;12.23;9.63;;;;;;;26.63;46.67;94641.38;5017452;28;20204;-84
2022/05/25 05:50:41;;;;;;;12.95;9.18;;;;;;;28.07;43.68;94643.81;5020220;28;20220;-87
2022/05/25 05:53:09;;;;;;;9.57;8.63;;;;;;;27.81;44.18;94647.72;5010989;28;20221;-83
2022/05/25 05:55:37;;;;;;;12.80;9.32;;;;;;;27.15;45.39;94644.19;5023683;28;20204;-89
2022/05/25 05:58:05;;;;;;;13.40;8.80;;;;;;;27.37;45.86;94647.22;5017254;28;20215;-87
2022/05/25 06:00:32;;;;;;;12.55;9.07;;;;;;;29.43;42.64;94635.78;5030981;28;20243;-88
2022/05/25 06:02:59;;;;;;;10.63;9.27;;;;;;;30.82;39.35;94637.25;5030446;28;20733;-87
2022/05/25 06:05:26;;;;;;;11.25;9.88;;;;;;;29.55;40.22;94637.78;5031110;28;20204;-83
2022/05/25 06:07:53;;;;;;;10.82;9.27;;;;;;;30.47;39.47;94633.75;5030393;28;20718;-88
2022/05/25 06:10:21;;;;;;;16.08;10.45;;;;;;;31.29;38.07;94625.03;5031200;28;20207;-86
2022/05/25 06:12:48;;;;;;;12.63;9.88;;;;;;;30.27;38.91;94641.69;5030828;28;20200;-86
2022/05/25 06:20:48;;;;;;;13.02;10.00;;;;;;;30.24;39.33;94643.38;5030929;28;20226;-87
2022/05/25 06:23:16;;;;;;;12.50;10.10;;;;;;;31.64;36.30;94643.19;5033260;28;20228;-87
2022/05/25 06:25:43;;;;;;;14.98;10.05;;;;;;;29.48;40.17;94651.19;5034432;28;20215;-83
2022/05/25 06:28:10;;;;;;;14.40;10.18;;;;;;;29.73;39.72;94639.19;5030651;28;20211;-84
2022/05/25 06:30:38;;;;;;;15.23;10.50;;;;;;;30.06;39.81;94646.03;5029939;28;20218;-89
2022/05/25 06:33:06;;;;;;;13.50;9.80;;;;;;;31.21;37.90;94646.94;5025517;28;20204;-82
2022/05/25 06:35:34;;;;;;;12.20;9.00;;;;;;;31.07;37.54;94642.66;5030129;28;20204;-86
2022/05/25 06:38:01;;;;;;;14.52;8.88;;;;;;;31.35;37.21;94635.16;5033475;28;20212;-81
2022/05/25 06:40:28;;;;;;;12.63;8.50;;;;;;;31.74;36.61;94644.75;5032771;28;20231;-82
2022/05/25 06:42:55;;;;;;;12.45;8.93;;;;;;;32.65;35.23;94648.84;5030858;28;20647;-84
2022/05/25 06:45:22;;;;;;;12.73;8.82;;;;;;;32.88;34.27;94639.00;5034712;28;20240;-85
2022/05/25 06:47:50;;;;;;;11.07;8.80;;;;;;;33.46;33.87;94638.63;5032157;28;20188;-86
2022/05/25 06:50:18;;;;;;;11.30;8.30;;;;;;;33.50;33.74;94642.03;5028048;28;20224;-87
2022/05/25 06:52:44;;;;;;;9.80;7.88;;;;;;;33.41;34.22;94642.09;5023954;28;20227;-84
2022/05/25 06:55:12;;;;;;;13.70;8.05;;;;;;;31.81;36.87;94643.69;5032894;28;20224;-83
2022/05/25 06:57:40;;;;;;;16.90;9.95;;;;;;;31.31;36.80;94656.13;5032015;28;20205;-85
2022/05/25 07:00:08;;;;;;;10.75;8.45;;;;;;;31.21;37.62;94641.31;5032173;28;20278;-89
2022/05/25 07:02:35;;;;;;;13.50;8.23;;;;;;;30.79;38.58;94642.97;5032851;28;20216;-85
2022/05/25 07:05:05;;;;;;;11.38;8.73;;;;;;;29.99;40.20;94654.66;5021215;28;20648;-83
2022/05/25 07:07:32;;;;;;;10.88;7.85;;;;;;;30.56;39.35;94664.59;5018304;28;20231;-87
2022/05/25 07:10:00;;;;;;;14.40;8.10;;;;;;;30.00;39.88;94661.81;5034323;28;20212;-83
2022/05/25 07:12:26;;;;;;;14.23;8.70;;;;;;;29.05;41.97;94668.50;5029247;28;20216;-87
2022/05/25 07:14:53;;;;;;;13.00;8.50;;;;;;;28.20;43.25;94680.88;5031037;28;20220;-81
2022/05/25 07:17:20;;;;;;;13.88;9.20;;;;;;;28.15;43.24;94678.63;5034014;28;20530;-90
2022/05/25 07:19:47;;;;;;;10.05;8.45;;;;;;;29.44;41.69;94676.44;5023067;28;20262;-87
2022/05/25 07:22:15;;;;;;;13.80;9.30;;;;;;;28.97;41.41;94677.06;5027459;28;20275;-86
2022/05/25 07:24:43;;;;;;;11.82;8.90;;;;;;;29.16;41.62;94671.72;5026928;28;20629;-83
2022/05/25 07:27:10;;;;;;;13.43;9.43;;;;;;;28.65;41.69;94671.66;5035951;28;20201;-82
2022/05/25 07:29:37;;;;;;;11.15;8.98;;;;;;;29.40;40.91;94675.75;5034182;28;20231;-85
2022/05/25 07:32:09;;;;;;;10.82;8.63;;;;;;;30.07;39.15;94667.13;5020226;28;20208;-84
2022/05/25 07:34:42;;;;;;;14.27;8.82;;;;;;;29.14;41.66;94679.75;5031845;28;20204;-82
2022/05/25 07:37:15;;;;;;;11.57;8.23;;;;;;;29.76;40.33;94663.44;5020256;28;20246;-86
2022/05/25 07:39:47;;;;;;;11.00;8.50;;;;;;;31.40;37.85;94650.56;5032984;28;20280;-83
2022/05/25 07:42:14;;;;;;;12.00;8.60;;;;;;;31.82;37.41;94652.88;5032722;28;20695;-87
2022/05/25 07:44:44;;;;;;;12.80;8.55;;;;;;;31.47;37.64;94650.28;5045536;28;20243;-88
2022/05/25 07:47:13;;;;;;;11.60;7.88;;;;;;;31.65;36.44;94661.56;5033397;28;20232;-86
2022/05/25 07:49:40;;;;;;;10.30;7.68;;;;;;;30.83;38.09;94655.59;5031757;28;20227;-83
2022/05/25 07:52:07;;;;;;;10.68;8.60;;;;;;;30.29;39.29;94642.00;5026127;28;20232;-81
2022/05/25 07:54:34;;;;;;;13.68;8.68;;;;;;;30.01;39.77;94641.03;5033329;28;20613;-87
2022/05/25 07:57:03;;;;;;;10.23;8.27;;;;;;;30.12;40.38;94647.00;5023057;28;20201;-87
2022/05/25 07:59:30;;;;;;;11.18;8.65;;;;;;;30.71;38.95;94646.06;5030674;28;20742;-87
2022/05/25 08:07:34;;;;;;;15.35;9.23;;;;;;;27.00;46.21;94661.63;5033022;28;20247;-85
2022/05/25 08:10:04;;;;;;;12.10;8.98;;;;;;;27.11;46.12;94673.28;5033457;28;20228;-83
2022/05/25 08:12:32;;;;;;;16.65;8.88;;;;;;;27.24;45.60;94669.38;5032327;28;20209;-86
2022/05/25 08:15:00;;;;;;;13.25;8.75;;;;;;;27.69;45.07;94667.94;5032590;28;20259;-86
2022/05/25 08:17:27;;;;;;;13.02;8.52;;;;;;;27.64;44.41;94668.44;5033059;28;20262;-87
2022/05/25 08:19:54;;;;;;;14.68;7.88;;;;;;;28.77;43.42;94656.94;5021161;28;20208;-85
2022/05/25 08:22:21;;;;;;;13.98;9.50;;;;;;;28.42;43.29;94655.22;5026759;28;20237;-87
2022/05/25 08:24:48;;;;;;;16.00;9.15;;;;;;;28.89;43.42;94647.84;5025221;28;20223;-88
2022/05/25 08:27:15;;;;;;;16.30;9.43;;;;;;;28.54;43.39;94648.91;5019751;28;20212;-86
2022/05/25 08:29:43;;;;;;;11.55;8.25;;;;;;;29.33;42.23;94642.47;5032628;28;20302;-87
2022/05/25 08:32:10;;;;;;;10.57;6.95;;;;;;;28.24;43.89;94648.16;5026442;28;20213;-82
2022/05/25 08:34:38;;;;;;;12.18;8.43;;;;;;;28.04;43.99;94650.25;5012367;28;20212;-89
2022/05/25 08:37:05;;;;;;;12.60;7.03;;;;;;;28.07;42.30;94674.47;5026459;28;20227;-88
2022/05/25 08:39:32;;;;;;;14.18;7.20;;;;;;;28.04;43.36;94672.53;5026182;28;20201;-84
2022/05/25 08:42:05;;;;;;;10.65;7.43;;;;;;;27.54;44.41;94673.81;5032430;28;20243;-81
2022/05/25 08:44:34;;;;;;;11.88;8.07;;;;;;;27.84;43.62;94666.34;5045326;28;20281;-87
2022/05/25 08:47:06;;;;;;;14.65;8.30;;;;;;;28.37;43.92;94669.69;5031534;28;20243;-88
2022/05/25 08:49:42;;;;;;;12.90;7.53;;;;;;;28.61;42.61;94668.19;5029398;28;20295;-87
2022/05/25 08:52:23;;;;;;;11.68;7.93;;;;;;;28.69;43.56;94663.97;5023295;28;20223;-87
2022/05/25 08:54:50;;;;;;;13.55;7.60;;;;;;;27.91;43.41;94680.06;5031881;28;20298;-86
2022/05/25 08:57:22;;;;;;;11.55;7.85;;;;;;;27.69;43.75;94684.63;5031947;28;20208;-83
2022/05/25 08:59:55;;;;;;;11.55;8.00;;;;;;;28.45;42.78;94673.84;5019586;28;20200;-88
2022/05/25 09:02:29;;;;;;;11.02;7.72;;;;;;;28.52;42.79;94668.06;5032770;28;20284;-85
2022/05/25 09:05:03;;;;;;;11.98;8.02;;;;;;;28.77;42.47;94662.53;5031432;28;20583;-83
2022/05/25 09:07:38;;;;;;;15.07;7.93;;;;;;;28.53;42.14;94664.06;5015206;28;20252;-85
2022/05/25 09:10:07;;;;;;;10.57;7.95;;;;;;;28.75;43.12;94659.41;5023685;28;20199;-87
2022/05/25 09:12:39;;;;;;;14.35;8.68;;;;;;;28.64;43.20;94658.94;5018337;28;20433;-86
2022/05/25 09:15:10;;;;;;;12.52;7.93;;;;;;;28.71;42.85;94647.56;5031109;28;20604;-86
2022/05/25 09:17:43;;;;;;;12.52;7.80;;;;;;;28.51;43.99;94644.19;5031899;28;20204;-87
2022/05/25 09:20:13;;;;;;;13.80;9.38;;;;;;;27.88;44.54;94664.25;5031572;28;20676;-87
2022/05/25 09:22:42;;;;;;;13.07;7.43;;;;;;;28.52;45.38;94668.84;5031475;28;20231;-84
2022/05/25 09:25:11;;;;;;;11.27;7.72;;;;;;;28.43;44.18;94676.31;5017033;28;20568;-84
2022/05/25 09:27:42;;;;;;;10.77;7.70;;;;;;;28.91;42.85;94672.50;5022437;28;20225;-88
2022/05/25 09:30:10;;;;;;;13.63;8.30;;;;;;;29.35;41.92;94674.31;5024938;28;20557;-82
2022/05/25 09:32:49;;;;;;;12.20;8.55;;;;;;;28.81;42.42;94679.97;5020460;28;20204;-82
2022/05/25 09:35:20;;;;;;;14.50;8.23;;;;;;;28.96;42.43;94675.53;5013472;28;20243;-87
2022/05/25 09:37:53;;;;;;;15.55;7.70;;;;;;;28.94;43.66;94677.97;5023671;28;20672;-87
2022/05/25 09:40:24;;;;;;;12.50;7.20;;;;;;;29.66;42.22;94671.69;5031056;28;20193;-87
2022/05/25 09:42:53;;;;;;;13.32;7.20;;;;;;;30.47;40.05;94663.75;5029605;28;20278;-86
2022/05/25 09:45:21;;;;;;;12.15;6.85;;;;;;;30.53;40.98;94662.69;5042752;28;20563;-85
2022/05/25 09:47:52;;;;;;;10.98;7.75;;;;;;;30.46;40.92;94665.75;5030874;28;20468;-87
2022/05/25 09:50:32;;;;;;;14.13;7.60;;;;;;;30.10;41.17;94660.66;5022117;28;20654;-83
2022/05/25 09:53:04;;;;;;;9.57;7.47;;;;;;;30.13;40.34;94659.75;5015437;28;20204;-85
2022/05/25 09:55:35;;;;;;;11.07;7.57;;;;;;;29.63;41.65;94650.28;5030555;28;20196;-83
2022/05/25 09:58:06;;;;;;;10.48;8.02;;;;;;;29.11;42.51;94641.63;5024799;28;20193;-81
2022/05/25 10:00:48;;;;;;;11.57;7.88;;;;;;;28.59;43.87;94646.31;5023509;28;20224;-86
2022/05/25 10:03:33;;;;;;;13.00;8.25;;;;;;;28.92;43.02;94638.59;5019569;28;20200;-87
2022/05/25 10:06:02;;;;;;;12.93;8.10;;;;;;;29.55;40.79;94631.41;5030490;28;20224;-88
2022/05/25 10:08:36;;;;;;;11.25;7.90;;;;;;;30.12;40.02;94621.84;5019776;28;20300;-87
2022/05/25 10:11:27;;;;;;;11.95;7.72;;;;;;;30.60;39.14;94620.50;5029850;28;20214;-87
2022/05/25 10:13:56;;;;;;;14.02;8.05;;;;;;;31.17;38.39;94611.91;5030439;28;20224;-87
2022/05/25 10:16:26;;;;;;;11.50;7.43;;;;;;;30.45;38.93;94613.09;5020816;28;20212;-80
2022/05/25 10:18:55;;;;;;;10.50;7.30;;;;;;;30.00;40.83;94622.69;5027379;28;20232;-83
2022/05/25 10:21:27;;;;;;;11.73;8.50;;;;;;;29.85;40.71;94621.59;5033855;28;20377;-86
2022/05/25 10:23:54;;;;;;;12.18;8.45;;;;;;;29.96;40.72;94619.22;5031436;28;20192;-87
2022/05/25 10:26:32;;;;;;;11.90;8.52;;;;;;;29.93;42.06;94623.69;5030286;28;20215;-86
2022/05/25 10:29:05;;;;;;;15.70;10.32;;;;;;;30.39;42.50;94616.47;5031014;28;20188;-85
2022/05/25 10:37:20;;;;;;;12.25;8.07;;;;;;;30.01;40.35;94624.25;5018541;28;20606;-85
2022/05/25 10:39:58;;;;;;;12.50;7.78;;;;;;;30.02;40.69;94620.22;5031584;28;20189;-84
2022/05/25 10:42:29;;;;;;;9.32;7.53;;;;;;;29.80;42.12;94613.78;5033638;28;20239;-84
2022/05/25 10:45:06;;;;;;;13.07;8.57;;;;;;;29.86;41.68;94606.41;5045063;28;20566;-84
2022/05/25 10:47:52;;;;;;;11.75;7.70;;;;;;;29.72;42.18;94601.31;5030439;28;20259;-83
2022/05/25 10:50:24;;;;;;;12.90;8.13;;;;;;;29.68;41.14;94590.25;5018970;28;20259;-83
2022/05/25 10:52:55;;;;;;;18.15;8.00;;;;;;;30.31;41.31;94584.41;5027519;28;21045;-87
2022/05/25 10:55:33;;;;;;;11.82;7.70;;;;;;;31.01;40.18;94582.94;5020018;28;20203;-86
2022/05/25 10:58:15;;;;;;;10.63;7.10;;;;;;;31.63;38.11;94587.59;5029916;28;20295;-85
2022/05/25 11:00:56;;;;;;;13.15;7.60;;;;;;;31.76;37.23;94583.44;5030248;28;20227;-87
2022/05/25 11:03:44;;;;;;;9.50;6.22;;;;;;;31.79;36.71;94578.94;5021803;28;20400;-87
2022/05/25 11:06:36;;;;;;;10.82;7.03;;;;;;;32.41;36.59;94575.78;5023891;28;20221;-87
2022/05/25 11:09:19;;;;;;;11.48;7.15;;;;;;;32.44;35.96;94572.81;5023836;28;20200;-82
2022/05/25 11:11:53;;;;;;;15.70;7.88;;;;;;;32.28;36.69;94570.34;5025263;28;20204;-86
2022/05/25 11:14:36;;;;;;;12.25;7.15;;;;;;;32.28;37.69;94559.13;5034107;28;20223;-87
2022/05/25 11:17:11;;;;;;;9.85;7.18;;;;;;;32.08;37.10;94572.84;5032751;28;20196;-84
2022/05/25 11:20:08;;;;;;;20.42;8.30;;;;;;;32.07;37.51;94568.50;5022954;28;20315;-87
2022/05/25 11:22:42;;;;;;;11.20;7.55;;;;;;;32.27;36.95;94554.78;5012465;28;20570;-87
2022/05/25 11:25:25;;;;;;;15.68;7.68;;;;;;;32.00;37.58;94560.38;5032105;28;20608;-87
2022/05/25 11:28:12;;;;;;;12.95;7.30;;;;;;;31.91;36.99;94561.19;5023404;28;20254;-86
2022/05/25 11:30:52;;;;;;;12.20;6.93;;;;;;;32.12;37.40;94551.03;5034001;28;20196;-88
2022/05/25 11:33:34;;;;;;;8.20;6.60;;;;;;;31.62;38.63;94555.22;5033360;28;20315;-87
2022/05/25 11:36:11;;;;;;;13.00;7.97;;;;;;;31.98;37.45;94562.91;5022902;28;20189;-88
2022/05/25 11:38:57;;;;;;;12.55;6.85;;;;;;;31.83;35.92;94556.38;5032438;28;20197;-88
2022/05/25 11:41:35;;;;;;;15.38;6.90;;;;;;;32.28;37.07;94556.34;5032999;28;20318;-88
2022/05/25 11:44:31;;;;;;;9.32;6.00;;;;;;;32.35;35.14;94544.81;5033332;28;20228;-87
2022/05/25 11:47:07;;;;;;;13.85;7.95;;;;;;;32.57;36.42;94541.75;5021435;28;20240;-84
2022/05/25 11:49:49;;;;;;;12.35;6.95;;;;;;;32.71;35.76;94537.50;5029808;28;20223;-84
2022/05/25 11:52:34;;;;;;;11.55;7.13;;;;;;;32.65;36.25;94536.63;5024449;28;20632;-86
2022/05/25 11:55:16;;;;;;;13.45;5.63;;;;;;;32.67;31.92;94528.47;5033307;28;20193;-87
2022/05/25 11:57:50;;;;;;;11.63;5.32;;;;;;;32.91;31.99;94515.31;5019229;28;20687;-85
2022/05/25 12:00:40;;;;;;;12.77;4.60;;;;;;;33.25;29.72;94527.31;5032909;28;20281;-83
2022/05/25 12:03:42;;;;;;;9.27;3.53;;;;;;;33.11;27.09;94514.72;5019863;28;20445;-85
2022/05/25 12:06:25;;;;;;;12.80;4.47;;;;;;;33.11;26.47;94512.69;4987139;28;20540;-84
2022/05/25 12:09:09;;;;;;;6.95;2.63;;;;;;;33.30;25.97;94512.63;5027900;28;20258;-82